Sabattus, Maine
Current Conditions -  °F | °C
As of 11:55 PM on Wednesday 22 Oct 2014 (Local Time) from KLEW Reporting Station
Overcast Overcast  
Wind Chill: 37°   Ceiling: 900
Heat Index: 45°   Visibility: 10mi
Dew Point: 41°   Wind: 16mph
Humidity: 87%   Direction: 20°NNE
Pressure: 30.02"   Gusts: 28mph
Location:  44.12°N, 70.11°W
Report Text: KLEW 230355Z AUTO 02014G24KT 10SM OVC009 07/05 A3002 RMK AO1
Loading
Personal Weather Stations






























Interactive Weather Map
Tropical Storm Tracking
New forecast layout! Learn more

10-Day Weather Forecast

Advertisements
Track Severe Weather on mobile